#metar

#METAR LFBO 301100Z AUTO 13011KT 100V170 8000 NSC 25/15 Q1015 NOSIG

30日20時現在の天気 札幌 ⭐快晴 北4㎧ 22℃ 仙台 ⭐快晴 南2㎧ 18℃ 東京 ☁曇 南南西6㎧ 23℃ 名古屋 ☁曇 南東5㎧ 23℃ 大阪 ☁曇 南西5㎧ 22℃ 福岡 ⭐快晴 北西3㎧ 24℃ 那覇 ☁曇 南西4㎧ 27℃ #METAR

#METAR LFBO 301030Z AUTO 12011KT 100V160 7000 NSC 25/15 Q1015 NOSIG

#METAR LFBO 301000Z AUTO 15010KT 7000 NSC 24/16 Q1015 NOSIG

#METAR LFBO 300930Z AUTO 12011KT 8000 NSC 23/15 Q1015 NOSIG

#METAR LFBO 300900Z AUTO 15013KT 8000 NSC 22/15 Q1015 NOSIG

30日18時現在の天気 札幌 ☀快晴 北北東3㎧ 28℃ 仙台 ☀快晴 南南東6㎧ 20℃ 東京 ☁曇 南南西7㎧ 24℃ 名古屋 ☁曇 南南東6㎧ 24℃ 大阪 ☁曇 南西6㎧ 23℃ 福岡 ☁曇 北西3㎧ 25℃ 那覇 ☁曇 南西5㎧ 28℃ #METAR

#METAR LFBO 300830Z AUTO 14013KT 9000 NSC 22/15 Q1015 NOSIG

#METAR LFBO 300800Z AUTO 13012KT 100V160 CAVOK 22/16 Q1016 NOSIG

#METAR LFBO 300730Z AUTO 15012KT 9999 FEW020 21/15 Q1016 NOSIG

#METAR LFBO 300700Z AUTO 15013KT 9999 FEW018 20/15 Q1016 TEMPO BKN013

30日16時現在の天気 札幌 ☀快晴 南東3㎧ 28℃ 仙台 ☀快晴 南南東5㎧ 22℃ 東京 ☁曇 南西6㎧ 26℃ 名古屋 ☁曇 南6㎧ 25℃ 大阪 ☁曇 西南西6㎧ 25℃ 福岡 ☁曇 北西4㎧ 25℃ 那覇 ☔雨 南8㎧ 28℃ #METAR

#METAR LFBO 300630Z AUTO 14011KT 110V170 9999 SCT017 19/15 Q1016 TEMPO BKN013

#METAR LFBO 300600Z AUTO 14011KT 9999 BKN015 18/15 Q1016 TEMPO BKN013

#METAR LFBO 300530Z AUTO 14008KT 100V170 9999 BKN015 18/14 Q1016 TEMPO BKN013

#METAR LFBO 300500Z AUTO 13007KT 9999 FEW016 17/14 Q1016 TEMPO BKN013

30日14時現在の天気 札幌 ☀快晴 南南東4㎧ 27℃ 仙台 ☀快晴 南東6㎧ 22℃ 東京 ☁曇 南6㎧ 26℃ 名古屋 ☁曇 南6㎧ 24℃ 大阪 ☁曇 北西2㎧ 25℃ 福岡 ☀快晴 無風 27℃ 那覇 ☀晴 南7㎧ 30℃ #METAR

海の方から雷雲がやって来たー❗
『ゴロゴロッ⚡‼』(*゚▽゚)ノ
#積乱雲 #CB #METAR #RJAA https://t.co/10GXk1GE0C

海の方から雷雲がやって来たー❗ 『ゴロゴロッ⚡‼』(*゚▽゚)ノ #積乱雲 #CB #METAR #RJAA https://t.co/10GXk1GE0C

#METAR LFBO 300430Z AUTO 13006KT 9999 FEW017 16/14 Q1016 TEMPO BKN013

#METAR LFBO 300400Z AUTO 13008KT 100V160 9999 FEW016 17/14 Q1016 TEMPO BKN013

Next Page